WetterOnline ( https://www.wetteronline.de )

Wetter aktuell Erzgebirge/Ost

Aktuelles Wetter: Zinnwald (882m)

6-stündlich | Neueste Meldungen
Ortszeit Temperatur Wetter
Di, 27.09. 8:00 5.8° C leichter Regen
Di, 27.09. 2:00 5.4° C Sprühregen
Mo, 26.09. 20:00 7.0° C wolkig
Mo, 26.09. 14:00 11.6° C -
Mo, 26.09. 8:00 5.8° C leichter Regen
Mo, 26.09. 2:00 7.9° C Nebel
So, 25.09. 20:00 8.6° C -
So, 25.09. 14:00 10.2° C -
Ortszeit Temperatur Wetter
Di, 27.09. 10:00 6.2° C leichter Regen
Di, 27.09. 9:30 6.0° C leichter Regen
Di, 27.09. 9:20 6.0° C leichter Regen
Di, 27.09. 9:10 6.0° C leichter Regen
Di, 27.09. 9:00 6.0° C leichter Regen
Di, 27.09. 8:50 6.0° C leichter Regen
Di, 27.09. 8:30 5.9° C leichter Regen
Di, 27.09. 8:00 5.8° C leichter Regen
Di, 27.09. 7:30 5.9° C leichter Regen
Di, 27.09. 7:00 5.9° C Nebel
Ortszeit Relative Feuchte Sichtweite
Di, 27.09. 8:00 99% 100 m
Di, 27.09. 2:00 98% 0.9 km
Mo, 26.09. 20:00 77% >70 km
Mo, 26.09. 14:00 60% >70 km
Mo, 26.09. 8:00 99% 1.0 km
Mo, 26.09. 2:00 99% 100 m
So, 25.09. 20:00 90% 40 km
So, 25.09. 14:00 92% 10 km
Ortszeit Relative Feuchte Sichtweite
Di, 27.09. 10:00 97% 20 km
Di, 27.09. 9:30 99% 9 km
Di, 27.09. 9:20 99% -
Di, 27.09. 9:10 99% -
Di, 27.09. 9:00 99% 5.0 km
Di, 27.09. 8:50 99% -
Di, 27.09. 8:30 99% 1.5 km
Di, 27.09. 8:00 99% 100 m
Di, 27.09. 7:30 99% <100 m
Di, 27.09. 7:00 99% 100 m
Ortszeit Niederschlagsmenge Niederschlagsart
Di, 27.09. 8:00 1 l/m2 in 12 Std. Regen
Di, 27.09. 2:00 0.1 l/m2 in 6 Std. Regen
Mo, 26.09. 20:00 0.1 l/m2 in 12 Std. Sprühregen
Mo, 26.09. 14:00 0.1 l/m2 in 6 Std. Regen
Mo, 26.09. 8:00 3 l/m2 in 12 Std. Regen
Mo, 26.09. 2:00 0.1 l/m2 in 6 Std. Regen
So, 25.09. 20:00 6 l/m2 in 12 Std. Regen
So, 25.09. 14:00 2 l/m2 in 6 Std. Regen
Ortszeit Niederschlagsmenge Niederschlagsart
Di, 27.09. 10:00 0.5 l/m2 in 1 Std. Regen
Di, 27.09. 9:30 0.4 l/m2 in 1 Std. -
Di, 27.09. 9:20 keine Meldung -
Di, 27.09. 9:10 keine Meldung -
Di, 27.09. 9:00 0.7 l/m2 in 1 Std. Regen
Di, 27.09. 8:50 keine Meldung -
Di, 27.09. 8:30 0.5 l/m2 in 1 Std. -
Di, 27.09. 8:00 0.4 l/m2 in 1 Std. Regen
Di, 27.09. 7:30 0.1 l/m2 in 1 Std. -
Di, 27.09. 7:00 0.3 l/m2 in 1 Std. Regen
Ortszeit Stärke Spitze Richtung
km/h Bft. km/h Grad Sektor
Di, 27.09. 8:00 30 5 44 180° S
Di, 27.09. 2:00 25 4 40 150° SO
Mo, 26.09. 20:00 22 4 35 180° S
Mo, 26.09. 14:00 22 4 29 190° S
Mo, 26.09. 8:00 7 2 24 280° W
Mo, 26.09. 2:00 9 2 20 250° W
So, 25.09. 20:00 11 2 18 260° W
So, 25.09. 14:00 4 1 25 360° N
Ortszeit Stärke Spitze Richtung
km/h Bft. km/h Grad Sektor
Di, 27.09. 10:00 22 4 40 180° S
Di, 27.09. 9:30 24 4 41 190° S
Di, 27.09. 9:20 24 4 - 190° S
Di, 27.09. 9:10 26 4 - 180° S
Di, 27.09. 9:00 24 4 46 170° S
Di, 27.09. 8:50 24 4 - 170° S
Di, 27.09. 8:30 28 4 46 180° S
Di, 27.09. 8:00 30 5 44 180° S
Di, 27.09. 7:30 28 4 39 170° S
Di, 27.09. 7:00 24 4 43 170° S
Ortszeit Untergrenze Bedeckung Gattung
total tief tief mittel hoch
Di, 27.09. 8:00 <30 m 8/8 0/8 - - -
Di, 27.09. 2:00 30 m 7/8 7/8 - - -
Mo, 26.09. 20:00 1800 m 7/8 2/8 - - -
Mo, 26.09. 14:00 - - - - - -
Mo, 26.09. 8:00 60 m 8/8 8/8 - - -
Mo, 26.09. 2:00 - - - - - -
So, 25.09. 20:00 - - - - - -
So, 25.09. 14:00 - - - - - -
Ortszeit Bedeckungsgrad in Achtel und Wolkenuntergrenze
Di, 27.09. 10:00 6(90m) 7(180m) 8(840m)
Di, 27.09. 9:30 7(60m)
Di, 27.09. 9:20 7(60m)
Di, 27.09. 9:10 7
Di, 27.09. 9:00 7(60m)
Di, 27.09. 8:50 7(60m)
Di, 27.09. 8:30 7(30m)
Di, 27.09. 8:00 8(<30m)
Di, 27.09. 7:30 8(<30m)
Di, 27.09. 7:00 8(<30m)
Ortszeit Stationsdruck (hPa) Tendenz (hPa in 3 Std.)
Di, 27.09. 8:00 896 - 1,0
Di, 27.09. 2:00 900 - 2,2
Mo, 26.09. 20:00 903 - 0,8
Mo, 26.09. 14:00 906 - 0,9
Mo, 26.09. 8:00 907 - 0,4
Mo, 26.09. 2:00 909 - 1,2
So, 25.09. 20:00 910 - 0,1
So, 25.09. 14:00 912 - 0,2
Ortszeit Stationsdruck (hPa) Tendenz (hPa in 3 Std.)
Di, 27.09. 10:00 896 + 0,3
Di, 27.09. 9:30 896 + 0,3
Di, 27.09. 9:20 896 keine Meldung
Di, 27.09. 9:10 896 keine Meldung
Di, 27.09. 9:00 896 - 0,5
Di, 27.09. 8:50 896 keine Meldung
Di, 27.09. 8:30 896 - 1,0
Di, 27.09. 8:00 896 - 1,0
Di, 27.09. 7:30 896 - 1,4
Di, 27.09. 7:00 896 - 1,9
Ortszeit Schneehöhe (cm)
Di, 27.09. 8:00 0
Di, 27.09. 2:00 0
Mo, 26.09. 20:00 0
Mo, 26.09. 14:00 0
Mo, 26.09. 8:00 0
Mo, 26.09. 2:00 0
So, 25.09. 20:00 0
So, 25.09. 14:00 0
Ortszeit Schneehöhe (cm)
Di, 27.09. 10:00 0
Di, 27.09. 9:30 0
Di, 27.09. 9:20 0
Di, 27.09. 9:10 0
Di, 27.09. 9:00 0
Di, 27.09. 8:50 0
Di, 27.09. 8:30 0
Di, 27.09. 8:00 0
Di, 27.09. 7:30 0
Di, 27.09. 7:00 0
Link zu dieser Seite / Seite empfehlen

Das Wetter in ...